Terminal Aerodrome Forecast
Issued by NWS Twin Cities, MN

Home | Current Version | Previous Version | Graphics & Text | Print | Product List | Glossary On
Versions: 1 2 3 4 5 6 7 8 9 10 11 12 13 14
102
FTUS43 KMPX 271124
TAFEAU
TAF
KEAU 271124Z 2712/2812 18003KT P6SM SCT080
     FM271900 18010KT P6SM BKN200
     FM280000 15006KT P6SM OVC090
     FM280700 13006KT 6SM BR SCT007 OVC015
     FM280900 13005KT 3SM -SHRA BR OVC005=

USA.gov is the U.S. government's official web portal to all federal, state and local government web resources and services.